createdAt,value
2022-12-01T00:02:08.539Z,5.99
2022-12-01T00:04:35.399Z,6.22
2022-12-01T00:07:02.488Z,6.10
2022-12-01T00:09:48.019Z,6.03
2022-12-01T00:12:14.905Z,6.01
2022-12-01T00:14:41.537Z,6.33
2022-12-01T00:17:08.299Z,6.09
2022-12-01T00:19:35.061Z,6.24
2022-12-01T00:22:01.995Z,6.03
2022-12-01T00:24:28.664Z,6.43
2022-12-01T00:26:55.324Z,6.11
2022-12-01T00:29:22.013Z,5.77
2022-12-01T00:31:48.764Z,5.80
2022-12-01T00:34:22.687Z,5.65
2022-12-01T00:36:49.352Z,6.00
2022-12-01T00:39:16.170Z,6.43
2022-12-01T00:41:42.865Z,5.87
2022-12-01T00:44:09.537Z,6.24
2022-12-01T00:46:36.390Z,6.76
2022-12-01T00:49:03.208Z,7.09
2022-12-01T00:51:30.087Z,6.72
2022-12-01T00:53:56.823Z,6.55
2022-12-01T00:56:23.602Z,6.99
2022-12-01T00:58:50.310Z,7.31
2022-12-01T01:01:17.183Z,7.15
2022-12-01T01:03:43.972Z,7.02
2022-12-01T01:06:12.093Z,6.77
2022-12-01T01:08:39.209Z,6.02
2022-12-01T01:11:07.036Z,6.56
2022-12-01T01:13:34.653Z,7.09
2022-12-01T01:16:05.862Z,7.34
2022-12-01T01:18:32.887Z,7.09
2022-12-01T01:21:01.190Z,7.24
2022-12-01T01:23:28.044Z,7.31
2022-12-01T01:25:54.824Z,7.17
2022-12-01T01:28:21.643Z,7.71
2022-12-01T01:30:48.381Z,7.70
2022-12-01T01:33:15.183Z,7.70
2022-12-01T01:35:42.008Z,7.67
2022-12-01T01:38:08.720Z,7.36
2022-12-01T01:40:35.379Z,7.58
2022-12-01T01:43:02.128Z,7.64
2022-12-01T01:45:29.718Z,7.78
2022-12-01T01:48:00.014Z,7.70
2022-12-01T01:50:28.435Z,7.79
2022-12-01T01:53:08.946Z,7.85
2022-12-01T01:55:36.324Z,8.09
2022-12-01T01:58:05.307Z,8.09
2022-12-01T02:00:32.087Z,8.10
2022-12-01T02:02:59.765Z,8.10
2022-12-01T02:05:31.765Z,8.12
2022-12-01T02:07:59.774Z,8.19
2022-12-01T02:10:49.828Z,8.38
2022-12-01T02:13:24.457Z,8.17
2022-12-01T02:16:01.993Z,8.19
2022-12-01T02:18:42.746Z,8.17
2022-12-01T02:21:21.739Z,8.09
2022-12-01T02:24:06.732Z,8.06
2022-12-01T02:26:36.453Z,8.19
2022-12-01T02:29:06.260Z,8.10
2022-12-01T02:31:39.162Z,8.23
2022-12-01T02:34:13.792Z,8.15
2022-12-01T02:36:51.370Z,7.74
2022-12-01T02:39:39.753Z,7.65
2022-12-01T02:42:34.620Z,8.04
2022-12-01T02:45:03.857Z,8.00
2022-12-01T02:47:31.427Z,7.92
2022-12-01T02:49:59.247Z,7.89
2022-12-01T02:52:27.281Z,7.93
2022-12-01T02:54:54.108Z,7.99
2022-12-01T02:57:24.449Z,8.07
2022-12-01T02:59:53.504Z,8.03
2022-12-01T03:02:24.802Z,8.12
2022-12-01T03:04:54.352Z,8.21
2022-12-01T03:07:35.744Z,8.18
2022-12-01T03:10:05.611Z,8.19
2022-12-01T03:12:32.262Z,6.99
2022-12-01T03:15:21.720Z,7.53
2022-12-01T03:18:01.541Z,7.43
2022-12-01T03:20:34.367Z,7.52
2022-12-01T03:23:04.950Z,7.86
2022-12-01T03:25:32.285Z,7.17
2022-12-01T03:28:20.841Z,7.04
2022-12-01T03:30:48.963Z,7.09
2022-12-01T03:33:19.462Z,7.24
2022-12-01T03:35:52.000Z,6.22
2022-12-01T03:38:22.068Z,6.30
2022-12-01T03:40:49.896Z,6.74
2022-12-01T03:43:20.090Z,6.68
2022-12-01T03:45:57.240Z,7.01
2022-12-01T03:48:24.620Z,7.43
2022-12-01T03:50:54.091Z,7.60
2022-12-01T03:53:27.652Z,7.72
2022-12-01T03:56:15.293Z,7.72
2022-12-01T03:58:45.652Z,7.53
2022-12-01T04:01:12.610Z,7.74
2022-12-01T04:03:39.469Z,7.86
2022-12-01T04:06:06.328Z,7.46
2022-12-01T04:08:34.051Z,7.53
2022-12-01T04:11:00.832Z,7.91
2022-12-01T04:13:27.580Z,7.78
2022-12-01T04:15:54.705Z,7.84
2022-12-01T04:18:21.544Z,7.74
2022-12-01T04:20:48.985Z,7.81
2022-12-01T04:23:35.641Z,7.85
2022-12-01T04:26:04.680Z,7.74
2022-12-01T04:28:31.629Z,7.79
2022-12-01T04:30:58.515Z,7.97
2022-12-01T04:33:25.399Z,8.06
2022-12-01T04:35:59.265Z,7.90
2022-12-01T04:38:30.472Z,7.97
2022-12-01T04:40:57.826Z,8.09
2022-12-01T04:43:24.578Z,8.12
2022-12-01T04:45:51.315Z,7.73
2022-12-01T04:48:18.085Z,8.08
2022-12-01T04:50:44.740Z,8.18
2022-12-01T04:53:11.516Z,6.93
2022-12-01T04:55:39.485Z,6.47
2022-12-01T04:58:06.366Z,6.49
2022-12-01T05:00:33.756Z,6.64
2022-12-01T05:03:00.798Z,5.81
2022-12-01T05:05:27.931Z,5.67
2022-12-01T05:07:54.857Z,5.40
2022-12-01T05:10:21.880Z,5.74
2022-12-01T05:12:48.613Z,5.83
2022-12-01T05:15:15.600Z,5.79
2022-12-01T05:17:42.318Z,6.22
2022-12-01T05:20:27.995Z,5.40
2022-12-01T05:23:05.441Z,6.26
2022-12-01T05:25:33.597Z,5.80
2022-12-01T05:28:00.358Z,6.42
2022-12-01T05:30:28.903Z,5.76
2022-12-01T05:32:55.954Z,5.84
2022-12-01T05:35:22.828Z,5.71
2022-12-01T05:37:49.516Z,6.14
2022-12-01T05:40:16.309Z,6.27
2022-12-01T05:42:43.018Z,6.30
2022-12-01T05:45:09.998Z,5.74
2022-12-01T05:47:36.707Z,6.05
2022-12-01T05:50:08.236Z,5.77
2022-12-01T05:52:35.606Z,5.74
2022-12-01T05:55:05.757Z,6.46
2022-12-01T05:57:33.271Z,6.45
2022-12-01T06:00:00.091Z,5.68
2022-12-01T06:02:29.816Z,6.38
2022-12-01T06:04:56.642Z,6.03
2022-12-01T06:07:25.424Z,5.76
2022-12-01T06:09:52.775Z,6.10
2022-12-01T06:12:19.921Z,5.77
2022-12-01T06:14:46.654Z,5.44
2022-12-01T06:17:13.421Z,5.08
2022-12-01T06:19:40.086Z,5.29
2022-12-01T06:22:06.903Z,4.83
2022-12-01T06:24:33.636Z,4.69
2022-12-01T06:27:00.472Z,5.04
2022-12-01T06:29:27.476Z,5.29
2022-12-01T06:31:54.301Z,5.71
2022-12-01T06:34:21.218Z,4.34
2022-12-01T06:36:48.014Z,4.38
2022-12-01T06:39:17.771Z,4.88
2022-12-01T06:41:44.542Z,5.12
2022-12-01T06:44:11.276Z,5.06
2022-12-01T06:46:38.228Z,5.10
2022-12-01T06:49:05.291Z,4.86
2022-12-01T06:51:34.425Z,5.27
2022-12-01T06:54:05.493Z,5.87
2022-12-01T06:56:32.550Z,5.10
2022-12-01T06:58:59.736Z,5.43
2022-12-01T07:01:26.927Z,5.75
2022-12-01T07:03:53.847Z,5.98
2022-12-01T07:06:20.666Z,5.18
2022-12-01T07:08:47.368Z,5.66
2022-12-01T07:11:15.143Z,5.05
2022-12-01T07:13:46.040Z,5.61
2022-12-01T07:16:15.711Z,5.45
2022-12-01T07:21:42.022Z,4.98
2022-12-01T07:24:19.112Z,4.70
2022-12-01T07:26:48.333Z,5.05
2022-12-01T07:29:16.613Z,4.67
2022-12-01T07:31:55.197Z,5.15
2022-12-01T07:34:56.900Z,5.65
2022-12-01T07:37:32.585Z,6.01
2022-12-01T07:39:59.459Z,5.20
2022-12-01T07:42:41.253Z,5.65
2022-12-01T07:45:13.156Z,6.03
2022-12-01T07:47:50.234Z,6.09
2022-12-01T07:50:17.540Z,6.54
2022-12-01T07:53:05.740Z,6.10
2022-12-01T07:55:35.192Z,5.86
2022-12-01T07:58:04.435Z,5.43
2022-12-01T08:00:33.561Z,5.27
2022-12-01T08:03:03.918Z,4.99
2022-12-01T08:05:44.065Z,5.39
2022-12-01T08:11:14.985Z,5.31
2022-12-01T08:13:42.128Z,6.05
2022-12-01T08:16:10.266Z,5.14
2022-12-01T08:18:40.033Z,5.58
2022-12-01T08:21:07.711Z,5.47
2022-12-01T08:23:35.878Z,5.69
2022-12-01T08:26:08.407Z,5.72
2022-12-01T08:28:36.439Z,5.99
2022-12-01T08:31:10.224Z,6.16
2022-12-01T08:33:37.214Z,5.57
2022-12-01T08:36:05.082Z,5.24
2022-12-01T08:38:33.245Z,5.04
2022-12-01T08:41:01.018Z,5.65
2022-12-01T08:43:55.998Z,6.19
2022-12-01T08:46:16.944Z,6.78
2022-12-01T08:48:43.752Z,5.81
2022-12-01T08:51:14.883Z,6.00
2022-12-01T08:53:45.601Z,5.89
2022-12-01T08:56:20.993Z,5.68
2022-12-01T08:58:49.765Z,5.42
2022-12-01T09:01:19.645Z,6.23
2022-12-01T09:03:47.939Z,5.98
2022-12-01T09:06:20.570Z,5.53
2022-12-01T09:08:47.636Z,5.52
2022-12-01T09:11:15.913Z,5.60
2022-12-01T09:13:43.325Z,5.50
2022-12-01T09:16:14.616Z,5.55
2022-12-01T09:18:42.256Z,5.96
2022-12-01T09:21:17.296Z,6.50
2022-12-01T09:23:44.609Z,6.09
2022-12-01T09:26:20.344Z,6.50
2022-12-01T09:28:47.996Z,5.91
2022-12-01T09:31:19.215Z,6.13
2022-12-01T09:33:46.471Z,6.32
2022-12-01T09:36:23.955Z,6.91
2022-12-01T09:38:51.988Z,7.02
2022-12-01T09:41:43.580Z,7.56
2022-12-01T09:44:17.506Z,6.96
2022-12-01T09:46:50.380Z,7.78
2022-12-01T09:49:30.156Z,8.22
2022-12-01T09:52:10.233Z,8.43
2022-12-01T09:54:37.291Z,8.29
2022-12-01T09:57:04.136Z,8.67
2022-12-01T09:59:37.903Z,8.35
2022-12-01T10:02:13.751Z,8.81
2022-12-01T10:04:45.139Z,8.97
2022-12-01T10:07:11.991Z,9.19
2022-12-01T10:09:38.819Z,9.26
2022-12-01T10:12:14.309Z,8.56
2022-12-01T10:14:41.541Z,8.99
2022-12-01T10:17:17.402Z,9.27
2022-12-01T10:20:03.122Z,9.02
2022-12-01T10:22:48.546Z,8.35
2022-12-01T10:25:22.110Z,9.40
2022-12-01T10:27:48.873Z,9.36
2022-12-01T10:30:17.550Z,9.34
2022-12-01T10:32:58.542Z,9.63
2022-12-01T10:35:39.897Z,9.73
2022-12-01T10:38:16.343Z,9.69
2022-12-01T10:40:43.379Z,9.75
2022-12-01T10:43:10.236Z,9.41
2022-12-01T10:45:56.929Z,9.98
2022-12-01T10:48:23.833Z,9.74
2022-12-01T10:51:06.312Z,9.71
2022-12-01T10:53:36.519Z,9.38
2022-12-01T10:56:07.681Z,9.39
2022-12-01T10:58:41.401Z,9.70
2022-12-01T11:01:16.050Z,9.89
2022-12-01T11:03:46.329Z,9.86
2022-12-01T11:06:23.586Z,10.01
2022-12-01T11:08:55.551Z,9.87
2022-12-01T11:11:22.312Z,9.16
2022-12-01T11:13:49.214Z,9.73
2022-12-01T11:16:34.466Z,9.82
2022-12-01T11:19:26.919Z,9.87
2022-12-01T11:21:58.951Z,9.62
2022-12-01T11:24:30.261Z,9.32
2022-12-01T11:26:59.189Z,9.70
2022-12-01T11:29:29.161Z,9.91
2022-12-01T11:31:57.241Z,9.98
2022-12-01T11:34:39.162Z,9.24
2022-12-01T11:37:18.516Z,9.69
2022-12-01T11:39:51.658Z,9.73
2022-12-01T11:42:27.070Z,9.82
2022-12-01T11:45:28.021Z,9.57
2022-12-01T11:48:09.932Z,9.82
2022-12-01T11:50:41.586Z,9.68
2022-12-01T11:53:36.785Z,9.78
2022-12-01T11:59:15.723Z,9.79
2022-12-01T12:01:57.394Z,9.95
2022-12-01T12:04:43.587Z,9.74
2022-12-01T12:08:05.036Z,9.87
2022-12-01T12:11:03.097Z,9.89
2022-12-01T12:13:47.128Z,9.85
2022-12-01T12:16:33.743Z,9.60
2022-12-01T12:20:06.708Z,9.98
2022-12-01T12:25:26.067Z,10.06
2022-12-01T12:27:57.727Z,10.11
2022-12-01T12:30:45.903Z,10.19
2022-12-01T12:33:14.496Z,10.10
2022-12-01T12:35:41.245Z,10.41
2022-12-01T12:38:35.847Z,10.14
2022-12-01T12:41:13.833Z,10.58
2022-12-01T12:43:43.694Z,10.92
2022-12-01T12:46:12.092Z,10.49
2022-12-01T12:48:57.287Z,10.06
2022-12-01T12:51:31.906Z,10.29
2022-12-01T12:54:21.034Z,10.66
2022-12-01T12:56:49.844Z,10.79
2022-12-01T12:59:32.548Z,11.02
2022-12-01T13:02:09.234Z,10.93
2022-12-01T13:04:59.522Z,10.44
2022-12-01T13:07:35.635Z,10.70
2022-12-01T13:10:10.390Z,10.73
2022-12-01T13:12:39.219Z,10.50
2022-12-01T13:15:16.310Z,10.17
2022-12-01T13:17:45.669Z,10.47
2022-12-01T13:20:14.575Z,10.52
2022-12-01T13:22:41.933Z,10.06
2022-12-01T13:25:08.764Z,10.51
2022-12-01T13:27:37.193Z,10.50
2022-12-01T13:30:08.686Z,10.44
2022-12-01T13:32:37.178Z,10.41
2022-12-01T13:35:08.438Z,9.94
2022-12-01T13:37:37.136Z,10.03
2022-12-01T13:40:10.736Z,10.19
2022-12-01T13:42:40.439Z,10.03
2022-12-01T13:45:20.322Z,10.00
2022-12-01T13:47:49.584Z,9.84
2022-12-01T13:50:35.048Z,9.68
2022-12-01T13:53:10.405Z,9.44
2022-12-01T13:55:54.946Z,9.84
2022-12-01T13:58:28.943Z,9.29
2022-12-01T14:01:15.926Z,9.42
2022-12-01T14:03:51.943Z,9.36
2022-12-01T14:06:21.941Z,9.51
2022-12-01T14:08:50.283Z,9.01
2022-12-01T14:11:20.868Z,9.44
2022-12-01T14:14:01.447Z,9.41
2022-12-01T14:16:48.383Z,9.58
2022-12-01T14:19:35.307Z,9.36
2022-12-01T14:22:02.650Z,9.67
2022-12-01T14:24:42.554Z,9.51
2022-12-01T14:27:12.088Z,9.68
2022-12-01T14:29:40.191Z,9.67
2022-12-01T14:32:09.768Z,9.42
2022-12-01T14:34:39.707Z,9.38
2022-12-01T14:37:11.826Z,9.33
2022-12-01T14:39:41.072Z,9.32
2022-12-01T14:42:10.574Z,9.49
2022-12-01T14:44:43.409Z,9.18
2022-12-01T14:47:31.274Z,9.48
2022-12-01T14:50:13.201Z,9.71
2022-12-01T14:53:06.138Z,9.64
2022-12-01T14:55:45.289Z,9.80
2022-12-01T14:58:24.519Z,9.74
2022-12-01T15:00:59.304Z,9.61
2022-12-01T15:03:31.977Z,9.51
2022-12-01T15:05:59.638Z,9.42
2022-12-01T15:08:53.308Z,9.38
2022-12-01T15:11:24.687Z,9.28
2022-12-01T15:13:53.265Z,9.29
2022-12-01T15:16:21.554Z,8.83
2022-12-01T15:18:48.827Z,9.02
2022-12-01T15:21:20.945Z,9.19
2022-12-01T15:23:53.879Z,8.94
2022-12-01T15:26:21.341Z,8.96
2022-12-01T15:28:48.362Z,9.07
2022-12-01T15:31:15.265Z,9.01
2022-12-01T15:33:50.791Z,8.98
2022-12-01T15:36:17.875Z,8.91
2022-12-01T15:38:46.315Z,9.05
2022-12-01T15:41:29.054Z,8.43
2022-12-01T15:44:02.263Z,8.57
2022-12-01T15:46:34.491Z,8.18
2022-12-01T15:49:18.230Z,8.11
2022-12-01T15:51:45.637Z,8.08
2022-12-01T15:54:20.525Z,8.17
2022-12-01T15:56:51.615Z,8.21
2022-12-01T15:59:26.605Z,8.31
2022-12-01T16:01:53.599Z,8.33
2022-12-01T16:04:24.642Z,8.38
2022-12-01T16:07:11.687Z,8.34
2022-12-01T16:09:39.401Z,8.31
2022-12-01T16:12:07.594Z,8.28
2022-12-01T16:14:34.815Z,8.12
2022-12-01T16:17:01.998Z,8.24
2022-12-01T16:19:32.611Z,8.26
2022-12-01T16:21:59.310Z,8.28
2022-12-01T16:24:31.113Z,8.30
2022-12-01T16:27:05.392Z,8.33
2022-12-01T16:29:35.351Z,8.22
2022-12-01T16:32:22.903Z,8.12
2022-12-01T16:34:50.666Z,8.15
2022-12-01T16:37:17.546Z,8.00
2022-12-01T16:39:44.346Z,7.85
2022-12-01T16:42:12.362Z,7.82
2022-12-01T16:44:39.210Z,7.87
2022-12-01T16:47:32.601Z,7.74
2022-12-01T16:49:59.289Z,7.76
2022-12-01T16:55:27.688Z,7.68
2022-12-01T16:57:55.688Z,7.71
2022-12-01T17:00:22.865Z,7.57
2022-12-01T17:02:49.780Z,7.49
2022-12-01T17:05:16.718Z,7.66
2022-12-01T17:07:43.566Z,7.65
2022-12-01T17:10:10.615Z,7.46
2022-12-01T17:12:37.329Z,7.32
2022-12-01T17:15:04.711Z,7.05
2022-12-01T17:17:31.391Z,7.09
2022-12-01T17:19:58.229Z,6.96
2022-12-01T17:22:25.152Z,6.99
2022-12-01T17:24:53.932Z,6.67
2022-12-01T17:27:20.668Z,6.97
2022-12-01T17:29:47.469Z,7.00
2022-12-01T17:32:14.779Z,7.01
2022-12-01T17:34:41.494Z,6.98
2022-12-01T17:37:08.318Z,6.98
2022-12-01T17:39:35.041Z,6.97
2022-12-01T17:42:01.734Z,6.74
2022-12-01T17:44:28.715Z,6.70
2022-12-01T17:46:55.563Z,6.76
2022-12-01T17:49:22.783Z,6.72
2022-12-01T17:51:49.647Z,6.67
2022-12-01T17:54:16.760Z,6.63
2022-12-01T17:56:43.639Z,6.55
2022-12-01T17:59:10.362Z,6.36
2022-12-01T18:01:37.245Z,6.53
2022-12-01T18:04:04.054Z,6.40
2022-12-01T18:06:30.805Z,6.55
2022-12-01T18:08:59.146Z,6.45
2022-12-01T18:11:25.954Z,6.35
2022-12-01T18:13:52.830Z,6.28
2022-12-01T18:16:26.555Z,6.21
2022-12-01T18:18:53.809Z,6.20
2022-12-01T18:21:22.813Z,5.88
2022-12-01T18:23:54.814Z,5.97
2022-12-01T18:26:22.520Z,6.00
2022-12-01T18:28:56.348Z,6.01
2022-12-01T18:31:23.616Z,6.12
2022-12-01T18:33:50.400Z,5.85
2022-12-01T18:36:24.534Z,5.88
2022-12-01T18:38:52.155Z,5.98
2022-12-01T18:41:19.283Z,5.92
2022-12-01T18:43:46.312Z,5.99
2022-12-01T18:46:14.243Z,5.82
2022-12-01T18:48:48.216Z,5.93
2022-12-01T18:51:15.452Z,5.90
2022-12-01T18:53:42.503Z,5.76
2022-12-01T18:56:11.680Z,5.81
2022-12-01T18:58:39.425Z,5.84
2022-12-01T19:01:17.658Z,5.84
2022-12-01T19:03:44.472Z,5.58
2022-12-01T19:06:13.035Z,5.76
2022-12-01T19:08:40.065Z,5.83
2022-12-01T19:11:07.218Z,5.86
2022-12-01T19:13:34.418Z,5.55
2022-12-01T19:16:05.922Z,5.67
2022-12-01T19:18:32.657Z,5.83
2022-12-01T19:21:03.425Z,5.84
2022-12-01T19:23:30.259Z,5.96
2022-12-01T19:25:57.421Z,5.88
2022-12-01T19:28:24.267Z,5.88
2022-12-01T19:30:51.222Z,5.83
2022-12-01T19:33:17.973Z,5.85
2022-12-01T19:35:44.803Z,5.88
2022-12-01T19:38:11.784Z,5.85
2022-12-01T19:40:38.892Z,5.92
2022-12-01T19:43:05.652Z,5.89
2022-12-01T19:45:33.723Z,5.97
2022-12-01T19:48:00.700Z,6.00
2022-12-01T19:50:27.495Z,5.99
2022-12-01T19:52:54.447Z,5.74
2022-12-01T19:55:21.201Z,5.81
2022-12-01T19:57:52.069Z,5.85
2022-12-01T20:00:19.268Z,5.82
2022-12-01T20:02:46.039Z,5.85
2022-12-01T20:05:12.840Z,5.76
2022-12-01T20:07:39.707Z,5.69
2022-12-01T20:10:06.677Z,5.74
2022-12-01T20:12:34.861Z,5.71
2022-12-01T20:15:02.105Z,5.50
2022-12-01T20:17:30.046Z,5.03
2022-12-01T20:19:56.721Z,5.50
2022-12-01T20:22:23.527Z,4.89
2022-12-01T20:24:50.811Z,4.98
2022-12-01T20:27:17.722Z,4.57
2022-12-01T20:29:44.428Z,4.90
2022-12-01T20:32:11.390Z,4.85
2022-12-01T20:34:40.257Z,5.04
2022-12-01T20:37:07.282Z,4.83
2022-12-01T20:39:37.071Z,4.59
2022-12-01T20:42:04.404Z,4.73
2022-12-01T20:44:31.243Z,4.73
2022-12-01T20:46:58.008Z,4.59
2022-12-01T20:49:24.735Z,4.74
2022-12-01T20:51:51.416Z,4.58
2022-12-01T20:54:27.766Z,4.80
2022-12-01T20:56:55.378Z,4.63
2022-12-01T20:59:22.136Z,4.63
2022-12-01T21:01:48.915Z,4.98
2022-12-01T21:04:15.736Z,5.05
2022-12-01T21:06:42.563Z,4.73
2022-12-01T21:09:09.373Z,4.75
2022-12-01T21:12:08.462Z,4.76
2022-12-01T21:14:41.694Z,4.73
2022-12-01T21:17:14.335Z,4.53
2022-12-01T21:19:53.910Z,4.16
2022-12-01T21:22:20.687Z,4.80
2022-12-01T21:24:50.027Z,4.50
2022-12-01T21:27:18.160Z,4.55
2022-12-01T21:29:46.277Z,4.49
2022-12-01T21:32:17.400Z,4.57
2022-12-01T21:34:45.568Z,4.46
2022-12-01T21:37:22.756Z,4.78
2022-12-01T21:39:55.096Z,4.15
2022-12-01T21:42:23.082Z,4.49
2022-12-01T21:44:50.131Z,4.49
2022-12-01T21:47:20.055Z,4.76
2022-12-01T21:49:48.387Z,4.95
2022-12-01T21:52:18.198Z,5.00
2022-12-01T21:54:45.116Z,4.90
2022-12-01T21:57:27.575Z,4.54
2022-12-01T21:59:58.050Z,4.63
2022-12-01T22:02:30.526Z,4.91
2022-12-01T22:04:59.494Z,4.76
2022-12-01T22:07:27.202Z,4.87
2022-12-01T22:09:54.376Z,4.75
2022-12-01T22:12:26.437Z,4.95
2022-12-01T22:14:54.007Z,4.93
2022-12-01T22:17:21.352Z,4.16
2022-12-01T22:20:08.318Z,4.67
2022-12-01T22:22:36.058Z,4.56
2022-12-01T22:25:21.679Z,4.81
2022-12-01T22:27:48.327Z,4.73
2022-12-01T22:30:22.015Z,4.49
2022-12-01T22:33:03.924Z,4.70
2022-12-01T22:35:36.514Z,3.86
2022-12-01T22:38:06.219Z,4.77
2022-12-01T22:40:48.528Z,4.25
2022-12-01T22:43:18.311Z,4.50
2022-12-01T22:45:48.084Z,4.74
2022-12-01T22:48:33.511Z,4.67
2022-12-01T22:51:23.311Z,4.31
2022-12-01T22:53:51.929Z,4.65
2022-12-01T22:56:26.558Z,4.52
2022-12-01T22:58:53.499Z,4.48
2022-12-01T23:01:30.460Z,4.88
2022-12-01T23:04:12.311Z,4.50
2022-12-01T23:06:53.124Z,4.16
2022-12-01T23:09:20.493Z,4.77
2022-12-01T23:11:58.730Z,4.66
2022-12-01T23:14:25.635Z,4.54
2022-12-01T23:16:57.537Z,4.74
2022-12-01T23:19:25.404Z,5.06
2022-12-01T23:21:52.602Z,4.83
2022-12-01T23:24:19.455Z,4.97
2022-12-01T23:26:47.386Z,4.71
2022-12-01T23:29:14.280Z,4.48
2022-12-01T23:31:41.387Z,4.93
2022-12-01T23:34:14.127Z,5.07
2022-12-01T23:36:41.095Z,4.98
2022-12-01T23:39:11.302Z,4.99
2022-12-01T23:41:41.626Z,5.01
2022-12-01T23:44:17.560Z,5.17
2022-12-01T23:46:44.506Z,5.20
2022-12-01T23:49:13.582Z,4.23
2022-12-01T23:51:44.488Z,4.67
2022-12-01T23:54:14.294Z,4.52
2022-12-01T23:56:41.112Z,4.40
2022-12-01T23:59:12.692Z,4.29
